KALX/ALX METAR and TAF weather

Enter ICAO airport designator
Station Type Date Time Source
KALX METAR 2019/04/25 21:55 UTC NOAA

KALX 252155Z AUTO 00000KT 10SM VCTSRA OVC010 16/15 A2991 RMK AO2 LTG DSNT S AND SW P0009 T01630149


Station Type Date Time Source
KALX Decoded METAR 2019/04/25 21:55 UTC NOAA

Alexander City, Thomas C Russell Field Airport, AL, United States (KALX) 32-54-53N 085-57-46W
Apr 25, 2019 - 05:55 PM EDT / 2019.04.25 2155 UTC
Wind: Calm:0
Visibility: 10 mile(s):0
Sky conditions: overcast
Weather: rain with thunder in the vicinity; Lightning observed
Precipitation last hour: 0.09 inches
Temperature: 61.3 F (16.3 C)
Dew Point: 58.8 F (14.9 C)
Relative Humidity: 91%
Pressure (altimeter): 29.91 in. Hg (1012 hPa)
ob: KALX 252155Z AUTO 00000KT 10SM VCTSRA OVC010 16/15 A2991 RMK AO2 LTG DSNT S AND SW P0009 T01630149
cycle: 22

Station Type Date Time Source
KALX TAF UTC NOAA

Error!

Example: see airport list